Time;durP1;ratioP1;P1;durP2;ratioP2;P2;SDS_P1;SDS_P2;PMS_P1;PMS_P2;Temp;Humidity;BMP_temperature;BMP_pressure;BME280_temperature;BME280_humidity;BME280_pressure;Samples;Min_cycle;Max_cycle;Signal;HPM_P1;HPM_P2
2023/07/14 00:01:25;;;;;;;11.17;10.83;;;20.40;69.10;;;;;;4920936;29;20462;-77
2023/07/14 00:03:54;;;;;;;10.67;10.37;;;20.40;71.50;;;;;;4920740;29;20469;-76
2023/07/14 00:06:22;;;;;;;10.40;10.00;;;20.40;74.80;;;;;;4920872;29;20521;-77
2023/07/14 00:08:51;;;;;;;10.87;10.57;;;20.40;77.90;;;;;;4922682;29;20478;-77
2023/07/14 00:11:22;;;;;;;10.50;10.20;;;20.30;79.70;;;;;;4924726;29;20456;-76
2023/07/14 00:13:54;;;;;;;10.53;10.23;;;20.30;82.40;;;;;;4925960;29;20522;-77
2023/07/14 00:16:28;;;;;;;10.90;10.47;;;20.20;82.00;;;;;;4925206;29;20452;-76
2023/07/14 00:18:57;;;;;;;10.67;10.20;;;20.20;83.30;;;;;;4923471;29;20583;-77
2023/07/14 00:21:27;;;;;;;10.77;10.47;;;20.20;83.00;;;;;;4921661;29;20468;-77
2023/07/14 00:23:59;;;;;;;10.73;10.43;;;20.20;79.60;;;;;;4924679;29;20456;-77
2023/07/14 00:26:30;;;;;;;10.37;10.00;;;20.00;80.10;;;;;;4922450;29;20453;-77
2023/07/14 00:29:01;;;;;;;10.70;10.30;;;20.00;80.30;;;;;;4922247;29;20459;-77
2023/07/14 00:31:29;;;;;;;10.93;10.57;;;20.00;81.90;;;;;;4922901;29;20466;-77
2023/07/14 00:33:58;;;;;;;10.50;10.10;;;19.90;81.90;;;;;;4923556;29;20565;-77
2023/07/14 00:36:26;;;;;;;10.83;10.53;;;20.00;83.90;;;;;;4923295;29;20453;-77
2023/07/14 00:38:54;;;;;;;10.63;10.23;;;20.10;84.50;;;;;;4923134;29;20467;-77
2023/07/14 00:41:24;;;;;;;11.00;10.50;;;20.00;82.00;;;;;;4924146;29;20456;-76
2023/07/14 00:43:52;;;;;;;11.20;10.60;;;20.00;83.20;;;;;;4924443;29;20481;-77
2023/07/14 00:46:27;;;;;;;11.57;11.07;;;20.00;85.00;;;;;;4921643;29;20459;-77
2023/07/14 00:48:59;;;;;;;10.60;10.30;;;20.00;85.30;;;;;;4923625;29;21053;-78
2023/07/14 00:51:30;;;;;;;11.07;10.37;;;19.90;85.20;;;;;;4917901;29;20476;-75
2023/07/14 00:53:58;;;;;;;10.73;10.40;;;20.00;84.70;;;;;;4924002;29;20472;-77
2023/07/14 00:56:34;;;;;;;10.70;10.40;;;20.00;88.60;;;;;;4925320;29;20456;-77
2023/07/14 00:59:10;;;;;;;10.30;10.10;;;20.00;90.30;;;;;;4926438;29;20478;-76
2023/07/14 01:02:11;;;;;;;10.63;10.33;;;20.00;89.00;;;;;;4918928;29;20457;-77
2023/07/14 01:04:45;;;;;;;11.37;10.70;;;19.90;89.10;;;;;;4925137;29;20475;-77
2023/07/14 01:07:16;;;;;;;11.20;10.80;;;19.90;89.20;;;;;;4922417;29;20503;-77
2023/07/14 01:09:46;;;;;;;11.20;10.90;;;19.80;90.50;;;;;;4923562;29;20499;-77
2023/07/14 01:12:17;;;;;;;10.77;10.37;;;19.80;91.00;;;;;;4907411;29;20486;-77
2023/07/14 01:14:49;;;;;;;12.10;11.50;;;19.80;92.40;;;;;;4922037;29;20575;-77
2023/07/14 01:17:17;;;;;;;11.00;10.70;;;19.70;92.20;;;;;;4924705;29;20451;-77
2023/07/14 01:19:51;;;;;;;11.00;10.70;;;19.80;93.30;;;;;;4924446;29;20464;-77
2023/07/14 01:25:28;;;;;;;11.27;10.90;;;19.60;92.10;;;;;;5727926;23;20512;-77
2023/07/14 01:27:57;;;;;;;11.20;10.97;;;19.60;93.30;;;;;;4953426;28;20481;-76
2023/07/14 01:30:26;;;;;;;11.40;11.00;;;19.60;92.70;;;;;;4956561;28;20469;-76
2023/07/14 01:32:54;;;;;;;11.60;11.20;;;19.50;93.00;;;;;;4957078;28;21036;-76
2023/07/14 01:35:28;;;;;;;11.30;10.80;;;19.50;92.40;;;;;;4952046;28;20930;-78
2023/07/14 01:37:56;;;;;;;11.60;11.20;;;19.40;90.90;;;;;;4956946;28;20456;-76
2023/07/14 01:40:25;;;;;;;11.20;10.53;;;19.40;91.20;;;;;;4957466;28;20474;-76
2023/07/14 01:42:57;;;;;;;11.00;10.60;;;19.40;92.00;;;;;;4956342;28;20452;-77
2023/07/14 01:45:30;;;;;;;10.80;10.50;;;19.40;92.40;;;;;;4956188;28;20499;-78
2023/07/14 01:48:02;;;;;;;11.33;11.00;;;19.40;92.30;;;;;;4953158;28;20487;-77
2023/07/14 01:50:34;;;;;;;11.73;11.20;;;19.30;93.10;;;;;;4956592;28;20455;-77
2023/07/14 01:53:06;;;;;;;11.63;10.90;;;19.30;94.70;;;;;;4955223;28;20444;-78
2023/07/14 01:55:36;;;;;;;10.70;10.30;;;19.30;94.90;;;;;;4956684;28;20476;-79
2023/07/14 01:58:11;;;;;;;11.07;10.67;;;19.30;96.00;;;;;;4958792;28;21046;-79
2023/07/14 02:00:41;;;;;;;10.53;10.23;;;19.20;96.60;;;;;;4957874;28;20443;-77
2023/07/14 02:03:14;;;;;;;10.97;10.63;;;19.20;96.60;;;;;;4956028;28;20453;-76
2023/07/14 02:05:42;;;;;;;10.73;10.43;;;19.20;97.60;;;;;;4953536;28;20575;-78
2023/07/14 02:08:17;;;;;;;11.67;11.07;;;19.10;97.70;;;;;;4956431;28;20593;-77
2023/07/14 02:10:45;;;;;;;10.80;10.50;;;19.10;99.50;;;;;;4954811;28;20471;-77
2023/07/14 02:13:14;;;;;;;11.83;11.23;;;19.10;99.40;;;;;;4959676;28;20971;-75
2023/07/14 02:15:44;;;;;;;11.27;10.97;;;19.10;99.90;;;;;;4954521;28;20559;-76
2023/07/14 02:18:16;;;;;;;11.40;11.00;;;19.10;99.90;;;;;;4962053;28;20463;-76
2023/07/14 02:20:47;;;;;;;12.00;11.30;;;19.10;99.90;;;;;;4956628;28;20470;-77
2023/07/14 02:23:20;;;;;;;11.00;10.70;;;19.00;99.90;;;;;;4958408;28;20459;-77
2023/07/14 02:26:02;;;;;;;12.23;11.70;;;19.00;99.90;;;;;;4954487;28;20488;-76
2023/07/14 02:28:30;;;;;;;11.67;11.20;;;19.00;99.90;;;;;;4955218;28;20537;-76
2023/07/14 02:31:12;;;;;;;12.53;12.13;;;19.00;99.90;;;;;;4953785;28;20514;-76
2023/07/14 02:33:43;;;;;;;11.77;11.37;;;19.00;99.90;;;;;;4957089;28;20464;-76
2023/07/14 02:36:19;;;;;;;11.33;11.03;;;18.90;99.90;;;;;;4956631;28;20487;-75
2023/07/14 02:38:47;;;;;;;11.57;11.07;;;18.90;99.90;;;;;;4953440;28;20978;-77
2023/07/14 02:41:27;;;;;;;11.37;10.83;;;18.80;99.90;;;;;;4954427;28;20456;-77
2023/07/14 02:44:00;;;;;;;11.97;11.47;;;18.80;99.90;;;;;;4968678;28;20493;-78
2023/07/14 02:46:37;;;;;;;11.83;11.43;;;18.80;99.90;;;;;;4938872;28;20483;-77
2023/07/14 02:49:07;;;;;;;11.50;11.20;;;18.70;99.90;;;;;;4956965;28;20516;-77
2023/07/14 02:51:36;;;;;;;11.60;11.10;;;18.70;99.90;;;;;;4951859;28;20469;-78
2023/07/14 02:54:05;;;;;;;10.90;10.57;;;18.70;99.90;;;;;;4953692;28;20976;-78
2023/07/14 02:56:34;;;;;;;11.23;10.73;;;18.70;99.90;;;;;;4956843;28;20535;-76
2023/07/14 02:59:03;;;;;;;11.23;10.90;;;18.80;99.90;;;;;;4956321;28;20452;-76
2023/07/14 03:01:33;;;;;;;11.50;11.10;;;18.80;99.90;;;;;;4956977;28;20478;-78
2023/07/14 03:04:01;;;;;;;11.00;10.70;;;18.80;99.90;;;;;;4958877;28;20502;-76
2023/07/14 03:06:30;;;;;;;12.60;11.97;;;18.70;99.90;;;;;;4950783;28;20510;-77
2023/07/14 03:08:58;;;;;;;11.20;10.80;;;18.70;99.90;;;;;;4952109;28;20514;-76
2023/07/14 03:11:26;;;;;;;11.90;11.43;;;18.60;99.90;;;;;;4952053;28;20451;-76
2023/07/14 03:13:54;;;;;;;11.47;11.17;;;18.70;99.90;;;;;;4954366;28;20467;-77
2023/07/14 03:16:22;;;;;;;11.83;11.30;;;18.70;99.90;;;;;;4950773;28;20479;-77
2023/07/14 03:18:52;;;;;;;11.30;11.00;;;18.70;99.90;;;;;;4954001;28;20451;-76
2023/07/14 03:21:20;;;;;;;11.83;11.43;;;18.60;99.90;;;;;;4952669;28;20476;-76
2023/07/14 03:23:48;;;;;;;11.70;11.30;;;18.50;99.90;;;;;;4955817;28;20455;-77
2023/07/14 03:26:16;;;;;;;11.60;11.30;;;18.50;99.90;;;;;;4950773;28;20491;-78
2023/07/14 03:28:44;;;;;;;11.40;11.00;;;18.50;99.90;;;;;;4954217;28;20494;-76
2023/07/14 03:31:12;;;;;;;11.00;10.80;;;18.50;99.90;;;;;;4953972;28;20447;-76
2023/07/14 03:33:41;;;;;;;11.10;10.77;;;18.50;99.90;;;;;;4954434;28;20550;-77
2023/07/14 03:36:13;;;;;;;11.43;11.03;;;18.50;99.90;;;;;;4951453;28;20483;-78
2023/07/14 03:38:42;;;;;;;11.60;11.10;;;18.50;99.90;;;;;;4957187;28;20467;-77
2023/07/14 03:41:11;;;;;;;11.10;10.77;;;18.50;99.90;;;;;;4955684;28;20459;-76
2023/07/14 03:43:40;;;;;;;10.77;10.37;;;18.50;99.90;;;;;;4959154;28;20458;-77
2023/07/14 03:46:08;;;;;;;11.77;11.30;;;18.40;99.90;;;;;;4956716;28;21049;-77
2023/07/14 03:48:37;;;;;;;11.60;11.00;;;18.50;99.90;;;;;;4956828;28;20485;-76
2023/07/14 03:51:05;;;;;;;11.10;10.50;;;18.50;99.90;;;;;;4955962;28;20468;-76
2023/07/14 03:53:35;;;;;;;11.40;11.00;;;18.50;99.90;;;;;;4956284;28;20490;-77
2023/07/14 03:56:04;;;;;;;10.93;10.53;;;18.40;99.90;;;;;;4958663;28;21039;-77
2023/07/14 03:58:32;;;;;;;11.57;11.17;;;18.40;99.90;;;;;;4958533;28;20818;-77
2023/07/14 04:01:01;;;;;;;11.60;11.20;;;18.40;99.90;;;;;;4952360;28;22206;-76
2023/07/14 04:03:29;;;;;;;11.47;11.07;;;18.40;99.90;;;;;;4953079;28;20550;-77
2023/07/14 04:05:57;;;;;;;11.40;11.00;;;18.30;99.90;;;;;;4960289;28;21059;-73
2023/07/14 04:08:25;;;;;;;12.10;11.60;;;18.40;99.90;;;;;;4956570;28;20451;-76
2023/07/14 04:10:55;;;;;;;11.90;11.60;;;18.10;99.90;;;;;;4957213;28;20212;-76
2023/07/14 04:13:23;;;;;;;12.13;11.83;;;18.30;99.90;;;;;;4958205;28;20462;-75
2023/07/14 04:15:51;;;;;;;12.10;11.80;;;18.50;99.90;;;;;;4960754;28;20568;-76
2023/07/14 04:18:19;;;;;;;12.47;11.90;;;18.50;99.90;;;;;;4952179;28;20447;-77
2023/07/14 04:20:48;;;;;;;12.60;12.00;;;18.60;99.90;;;;;;4956154;28;20513;-76
2023/07/14 04:23:17;;;;;;;13.00;12.40;;;18.50;99.90;;;;;;4951553;28;20882;-76
2023/07/14 04:25:45;;;;;;;12.93;12.20;;;18.60;99.90;;;;;;4953242;28;20905;-77
2023/07/14 04:28:15;;;;;;;12.63;12.13;;;18.60;99.90;;;;;;4955304;28;20483;-78
2023/07/14 04:30:43;;;;;;;12.43;11.97;;;18.70;99.90;;;;;;4954460;28;20566;-78
2023/07/14 04:33:11;;;;;;;13.17;12.50;;;18.70;99.90;;;;;;4959006;28;20486;-74
2023/07/14 04:35:39;;;;;;;13.00;12.50;;;18.70;99.90;;;;;;4964854;28;20499;-73
2023/07/14 04:38:07;;;;;;;13.30;12.80;;;18.60;99.90;;;;;;4963399;28;20458;-73
2023/07/14 04:40:36;;;;;;;12.70;12.20;;;18.70;99.90;;;;;;4963195;28;20468;-74
2023/07/14 04:43:04;;;;;;;12.13;11.83;;;18.70;99.90;;;;;;4965783;28;20486;-72
2023/07/14 04:45:37;;;;;;;12.40;12.10;;;18.70;99.90;;;;;;4960550;28;20478;-73
2023/07/14 04:48:06;;;;;;;12.47;11.97;;;18.60;99.90;;;;;;4963337;28;20917;-72
2023/07/14 04:50:35;;;;;;;13.70;13.00;;;18.70;99.90;;;;;;4964972;28;20498;-73
2023/07/14 04:53:05;;;;;;;12.67;12.20;;;18.80;99.90;;;;;;4956350;28;20466;-72
2023/07/14 04:55:35;;;;;;;12.80;12.30;;;18.80;99.90;;;;;;4959747;28;21509;-71
2023/07/14 04:58:04;;;;;;;13.17;12.70;;;18.80;99.90;;;;;;4948162;28;20470;-72
2023/07/14 05:00:34;;;;;;;12.57;12.20;;;18.80;99.90;;;;;;4963493;28;20510;-72
2023/07/14 05:03:03;;;;;;;12.77;12.23;;;18.80;99.90;;;;;;4965283;28;20956;-72
2023/07/14 05:05:32;;;;;;;13.03;12.50;;;18.90;99.90;;;;;;4963136;28;21076;-71
2023/07/14 05:08:01;;;;;;;13.17;12.47;;;18.90;99.90;;;;;;4963016;28;20490;-69
2023/07/14 05:10:32;;;;;;;13.83;13.03;;;18.90;99.90;;;;;;4967127;28;20488;-71
2023/07/14 05:13:01;;;;;;;13.13;12.70;;;18.90;99.90;;;;;;4961554;28;20574;-71
2023/07/14 05:15:29;;;;;;;13.33;12.70;;;19.00;99.90;;;;;;4952702;28;20475;-79
2023/07/14 05:18:06;;;;;;;13.43;12.90;;;19.20;99.90;;;;;;4956321;28;20547;-78
2023/07/14 05:20:36;;;;;;;14.20;13.60;;;19.30;99.90;;;;;;4952380;28;20556;-80
2023/07/14 05:23:04;;;;;;;13.67;12.97;;;19.40;99.90;;;;;;4952682;28;20475;-79
2023/07/14 05:25:34;;;;;;;13.23;12.83;;;19.50;99.90;;;;;;4955202;28;20483;-77
2023/07/14 05:28:02;;;;;;;13.43;12.93;;;19.50;99.90;;;;;;4957766;28;20460;-77
2023/07/14 05:30:31;;;;;;;13.17;12.60;;;19.60;99.90;;;;;;4959432;28;20518;-78
2023/07/14 05:32:59;;;;;;;13.73;13.20;;;19.70;99.90;;;;;;4958052;28;20475;-80
2023/07/14 05:35:29;;;;;;;13.90;13.20;;;19.70;99.90;;;;;;4956036;28;20489;-78
2023/07/14 05:37:58;;;;;;;13.97;13.27;;;19.70;99.90;;;;;;4957514;28;20463;-80
2023/07/14 05:40:26;;;;;;;13.60;13.10;;;19.80;99.90;;;;;;4955506;28;20470;-78
2023/07/14 05:42:58;;;;;;;13.73;13.03;;;19.90;99.90;;;;;;4960262;28;20466;-78
2023/07/14 05:45:26;;;;;;;13.50;13.00;;;20.00;99.90;;;;;;4958711;28;20472;-78
2023/07/14 05:47:54;;;;;;;14.80;14.07;;;20.00;99.90;;;;;;4958121;28;20471;-78
2023/07/14 05:50:22;;;;;;;14.97;14.07;;;20.00;99.90;;;;;;4956248;28;21098;-78
2023/07/14 05:52:52;;;;;;;13.53;13.03;;;20.20;99.90;;;;;;4958079;28;21155;-78
2023/07/14 05:55:20;;;;;;;14.00;13.30;;;20.20;99.90;;;;;;4956176;28;20508;-78
2023/07/14 05:57:48;;;;;;;13.87;13.37;;;20.20;99.90;;;;;;4959841;28;20539;-78
2023/07/14 06:00:18;;;;;;;13.60;13.20;;;20.30;99.90;;;;;;4958942;28;20558;-77
2023/07/14 06:02:49;;;;;;;13.90;13.30;;;20.30;99.90;;;;;;4957934;28;21141;-79
2023/07/14 06:05:19;;;;;;;13.43;12.73;;;20.30;99.90;;;;;;4957699;28;20514;-79
2023/07/14 06:07:47;;;;;;;12.70;12.20;;;20.30;99.90;;;;;;4958424;28;20562;-79
2023/07/14 06:10:17;;;;;;;12.77;12.23;;;20.30;99.90;;;;;;4955869;28;20518;-80
2023/07/14 06:12:45;;;;;;;13.53;13.03;;;20.30;99.90;;;;;;4959370;28;20946;-78
2023/07/14 06:15:13;;;;;;;13.07;12.57;;;20.40;99.90;;;;;;4957583;28;20483;-79
2023/07/14 06:17:41;;;;;;;12.53;12.13;;;20.40;99.90;;;;;;4957264;28;20460;-78
2023/07/14 06:20:11;;;;;;;13.30;12.70;;;20.40;99.90;;;;;;4954994;28;20466;-78
2023/07/14 06:22:40;;;;;;;12.97;12.47;;;20.40;99.90;;;;;;4957343;28;20864;-78
2023/07/14 06:25:08;;;;;;;12.97;12.57;;;20.50;99.90;;;;;;4955331;28;20486;-78
2023/07/14 06:27:38;;;;;;;13.77;13.23;;;20.60;99.90;;;;;;4955987;28;20490;-78
2023/07/14 06:30:08;;;;;;;13.10;12.60;;;20.60;99.90;;;;;;4959816;28;20488;-78
2023/07/14 06:32:38;;;;;;;13.23;12.73;;;20.70;99.90;;;;;;4956828;28;20816;-78
2023/07/14 06:35:08;;;;;;;13.53;12.83;;;20.80;99.90;;;;;;4955702;28;20953;-80
2023/07/14 06:37:36;;;;;;;13.20;12.80;;;20.80;99.90;;;;;;4957978;28;20469;-78
2023/07/14 06:40:07;;;;;;;13.20;12.60;;;20.90;99.90;;;;;;4958430;28;20894;-79
2023/07/14 06:42:37;;;;;;;12.90;12.23;;;20.90;99.90;;;;;;4959961;28;20470;-79
2023/07/14 06:45:07;;;;;;;12.53;12.13;;;20.90;99.90;;;;;;4956447;28;20841;-79
2023/07/14 06:47:35;;;;;;;12.43;12.03;;;20.90;99.90;;;;;;4957677;28;20505;-79
2023/07/14 06:50:04;;;;;;;13.00;12.40;;;21.00;99.90;;;;;;4962046;28;20482;-77
2023/07/14 06:52:33;;;;;;;12.77;12.37;;;21.10;99.90;;;;;;4955359;28;20466;-78
2023/07/14 06:55:01;;;;;;;12.97;12.20;;;21.30;99.90;;;;;;4957433;28;20454;-79
2023/07/14 06:57:29;;;;;;;12.77;12.30;;;21.30;99.90;;;;;;4957288;28;20929;-78
2023/07/14 06:59:58;;;;;;;12.23;11.93;;;21.40;99.90;;;;;;4956520;28;20454;-79
2023/07/14 07:02:28;;;;;;;12.40;11.90;;;21.50;99.90;;;;;;4950893;28;21068;-79
2023/07/14 07:04:56;;;;;;;12.00;11.53;;;21.60;99.90;;;;;;4953889;28;20463;-79
2023/07/14 07:07:24;;;;;;;12.10;11.70;;;21.60;99.90;;;;;;4959151;28;20596;-79
2023/07/14 07:09:55;;;;;;;12.60;12.20;;;21.60;99.90;;;;;;4964695;28;20475;-79
2023/07/14 07:12:23;;;;;;;12.30;11.80;;;21.60;99.90;;;;;;4960505;28;21128;-78
2023/07/14 07:14:51;;;;;;;12.40;11.97;;;21.70;99.90;;;;;;4956668;28;20467;-77
2023/07/14 07:17:21;;;;;;;11.97;11.57;;;21.70;99.90;;;;;;4960709;28;20939;-78
2023/07/14 07:19:49;;;;;;;12.07;11.67;;;21.80;99.90;;;;;;4962655;28;20545;-79
2023/07/14 07:22:17;;;;;;;12.27;11.87;;;21.80;99.90;;;;;;4962718;28;20447;-78
2023/07/14 07:24:45;;;;;;;11.80;11.50;;;21.80;99.90;;;;;;4960211;28;20768;-79
2023/07/14 07:27:13;;;;;;;11.70;11.20;;;21.90;99.90;;;;;;4960449;28;20574;-76
2023/07/14 07:29:42;;;;;;;11.90;11.60;;;21.90;99.90;;;;;;4959951;28;20827;-78
2023/07/14 07:32:11;;;;;;;11.60;11.30;;;21.90;99.90;;;;;;4963695;28;20582;-79
2023/07/14 07:34:41;;;;;;;11.40;11.10;;;22.00;99.90;;;;;;4961770;28;20883;-78
2023/07/14 07:37:10;;;;;;;12.50;12.10;;;22.00;99.90;;;;;;4962792;28;21185;-79
2023/07/14 07:39:38;;;;;;;12.10;11.70;;;22.00;99.90;;;;;;4952004;28;20458;-81
2023/07/14 07:42:10;;;;;;;11.80;11.30;;;22.10;99.90;;;;;;4960851;28;20511;-78
2023/07/14 07:44:39;;;;;;;12.37;11.57;;;22.20;99.90;;;;;;4960545;28;21062;-78
2023/07/14 07:47:08;;;;;;;12.27;11.77;;;22.20;99.90;;;;;;4958714;28;20861;-79
2023/07/14 07:49:36;;;;;;;11.30;11.00;;;22.20;99.90;;;;;;4956819;28;20468;-78
2023/07/14 07:52:06;;;;;;;12.10;11.50;;;22.20;99.90;;;;;;4959423;28;21095;-78
2023/07/14 07:54:34;;;;;;;11.50;11.20;;;22.30;99.90;;;;;;4959611;28;20952;-78
2023/07/14 07:57:03;;;;;;;12.70;12.00;;;22.30;99.90;;;;;;4959845;28;20971;-78
2023/07/14 07:59:31;;;;;;;12.40;12.00;;;22.30;99.90;;;;;;4964388;28;21055;-78
2023/07/14 08:01:59;;;;;;;12.20;11.70;;;22.40;99.90;;;;;;4962968;28;20451;-79
2023/07/14 08:04:27;;;;;;;11.70;11.40;;;22.50;99.90;;;;;;4961402;28;20982;-79
2023/07/14 08:06:56;;;;;;;11.40;11.10;;;22.50;99.90;;;;;;4957963;28;20495;-79
2023/07/14 08:09:25;;;;;;;11.40;11.10;;;22.60;99.90;;;;;;4958025;28;20783;-78
2023/07/14 08:11:56;;;;;;;11.60;11.27;;;22.70;99.90;;;;;;4957509;28;20482;-78
2023/07/14 08:14:24;;;;;;;11.20;10.80;;;22.80;98.70;;;;;;4958802;28;20941;-77
2023/07/14 08:16:52;;;;;;;11.23;10.73;;;22.80;99.30;;;;;;4960656;28;20487;-79
2023/07/14 08:19:20;;;;;;;11.10;10.80;;;22.90;98.90;;;;;;4958650;28;22717;-79
2023/07/14 08:21:48;;;;;;;11.77;11.37;;;22.90;99.90;;;;;;4963078;28;20508;-80
2023/07/14 08:24:16;;;;;;;11.20;10.80;;;23.00;99.80;;;;;;4960632;28;20469;-78
2023/07/14 08:26:46;;;;;;;11.57;11.33;;;23.10;99.90;;;;;;4961705;28;20609;-78
2023/07/14 08:29:14;;;;;;;13.03;12.13;;;23.10;99.90;;;;;;4959150;28;20463;-77
2023/07/14 08:31:44;;;;;;;11.80;11.50;;;23.20;99.40;;;;;;4958271;28;20475;-80
2023/07/14 08:34:12;;;;;;;11.30;11.00;;;23.30;99.20;;;;;;4960357;28;20460;-78
2023/07/14 08:36:40;;;;;;;12.27;11.30;;;23.40;98.10;;;;;;4956498;28;20550;-79
2023/07/14 08:39:08;;;;;;;11.40;11.03;;;23.40;99.90;;;;;;4957490;28;20483;-79
2023/07/14 08:41:40;;;;;;;11.80;11.40;;;23.50;99.90;;;;;;4959893;28;20456;-80
2023/07/14 08:44:32;;;;;;;11.67;11.37;;;23.40;99.30;;;;;;4959205;28;20676;-79
2023/07/14 08:47:10;;;;;;;11.60;11.20;;;23.40;99.10;;;;;;4957237;28;20678;-78
2023/07/14 08:49:47;;;;;;;11.43;10.77;;;23.40;99.90;;;;;;4954711;28;20865;-79
2023/07/14 08:52:22;;;;;;;11.37;10.97;;;23.50;98.70;;;;;;4960666;28;20482;-81
2023/07/14 08:54:55;;;;;;;11.77;11.10;;;23.50;99.00;;;;;;4960799;28;20447;-79
2023/07/14 08:57:26;;;;;;;11.37;11.07;;;23.60;99.90;;;;;;4961891;28;20549;-81
2023/07/14 08:59:59;;;;;;;11.10;10.70;;;23.70;99.90;;;;;;4958443;28;20460;-79
2023/07/14 09:02:36;;;;;;;11.10;10.70;;;23.70;99.30;;;;;;4960321;28;20451;-79
2023/07/14 09:05:16;;;;;;;10.70;10.20;;;23.70;98.60;;;;;;4959407;28;20562;-81
2023/07/14 09:07:45;;;;;;;10.93;10.50;;;23.80;99.00;;;;;;4961880;28;20494;-78
2023/07/14 09:10:13;;;;;;;11.37;10.83;;;23.80;99.10;;;;;;4956698;28;20464;-80
2023/07/14 09:12:52;;;;;;;11.00;10.70;;;23.80;99.10;;;;;;4960295;28;20483;-78
2023/07/14 09:15:25;;;;;;;11.27;10.80;;;23.80;99.50;;;;;;4962240;28;20537;-80
2023/07/14 09:18:06;;;;;;;11.33;10.97;;;23.80;98.90;;;;;;4958619;28;20471;-78
2023/07/14 09:20:52;;;;;;;11.27;10.83;;;23.80;99.70;;;;;;4958095;28;20955;-79
2023/07/14 09:23:38;;;;;;;11.00;10.70;;;23.90;99.90;;;;;;4960086;28;20556;-80
2023/07/14 09:26:13;;;;;;;11.70;11.30;;;24.00;99.90;;;;;;4958418;28;20528;-80
2023/07/14 09:28:45;;;;;;;11.77;11.00;;;24.00;99.40;;;;;;4963024;28;20469;-78
2023/07/14 09:31:30;;;;;;;10.80;10.40;;;24.00;99.70;;;;;;4958925;28;21043;-79
2023/07/14 09:34:04;;;;;;;11.00;10.70;;;24.00;99.90;;;;;;4960787;28;20480;-79
2023/07/14 09:36:35;;;;;;;11.20;10.87;;;24.00;99.70;;;;;;4957783;28;20486;-78
2023/07/14 09:39:07;;;;;;;11.10;10.70;;;24.00;99.90;;;;;;4957448;28;20482;-79
2023/07/14 09:41:35;;;;;;;11.27;10.87;;;24.10;99.90;;;;;;4959705;28;20451;-79
2023/07/14 09:44:04;;;;;;;11.30;10.70;;;24.10;99.90;;;;;;4960467;28;20455;-80
2023/07/14 09:46:39;;;;;;;11.07;10.77;;;24.10;99.90;;;;;;4959674;28;20478;-79
2023/07/14 09:49:17;;;;;;;11.10;10.57;;;24.10;99.50;;;;;;4959386;28;20550;-78
2023/07/14 09:52:02;;;;;;;11.80;11.40;;;24.10;98.50;;;;;;4959216;28;20510;-79
2023/07/14 09:54:30;;;;;;;11.70;11.30;;;24.00;99.70;;;;;;4957591;28;21036;-79
2023/07/14 09:57:02;;;;;;;10.93;10.73;;;24.10;99.90;;;;;;4960881;28;20478;-79
2023/07/14 09:59:30;;;;;;;11.33;11.03;;;24.10;99.90;;;;;;4960127;28;20455;-80
2023/07/14 10:02:01;;;;;;;11.43;11.03;;;24.10;99.90;;;;;;4959102;28;20455;-77
2023/07/14 10:04:31;;;;;;;12.03;11.53;;;24.10;99.70;;;;;;4959032;28;20456;-79
2023/07/14 10:07:22;;;;;;;11.37;10.97;;;24.10;99.20;;;;;;4957486;28;20846;-80
2023/07/14 10:09:58;;;;;;;11.27;10.97;;;24.10;98.50;;;;;;4957187;28;20463;-79
2023/07/14 10:12:26;;;;;;;11.30;10.93;;;24.10;97.50;;;;;;4958745;28;20832;-80
2023/07/14 10:14:54;;;;;;;10.90;10.57;;;24.10;97.10;;;;;;4957517;28;20857;-79
2023/07/14 10:17:26;;;;;;;12.57;11.97;;;24.00;95.80;;;;;;4957947;28;20456;-79
2023/07/14 10:19:57;;;;;;;11.23;10.93;;;24.10;96.60;;;;;;4957135;28;20672;-80
2023/07/14 10:22:31;;;;;;;11.20;10.80;;;24.10;96.50;;;;;;4959469;28;21048;-79
2023/07/14 10:25:01;;;;;;;10.80;10.30;;;24.20;97.20;;;;;;4956747;28;20526;-79
2023/07/14 10:27:31;;;;;;;11.13;10.70;;;24.20;97.90;;;;;;4959368;28;20467;-80
2023/07/14 10:30:17;;;;;;;10.80;10.50;;;24.20;97.20;;;;;;4958308;28;20463;-79
2023/07/14 10:32:51;;;;;;;10.30;10.00;;;24.30;97.30;;;;;;4958358;28;20495;-79
2023/07/14 10:35:21;;;;;;;10.50;10.17;;;24.30;96.40;;;;;;4960148;28;20909;-78
2023/07/14 10:37:54;;;;;;;10.10;9.80;;;24.40;97.60;;;;;;4959460;28;20459;-79
2023/07/14 10:40:26;;;;;;;10.37;10.07;;;24.40;96.40;;;;;;4956324;28;20452;-79
2023/07/14 10:42:58;;;;;;;9.97;9.70;;;24.50;97.90;;;;;;4959919;28;20470;-78
2023/07/14 10:45:29;;;;;;;10.97;10.27;;;24.50;96.90;;;;;;4957468;28;20479;-79
2023/07/14 10:48:03;;;;;;;11.03;10.60;;;24.50;96.70;;;;;;4958715;28;20448;-80
2023/07/14 10:50:36;;;;;;;10.80;10.23;;;24.50;96.00;;;;;;4956483;28;20466;-80
2023/07/14 10:53:09;;;;;;;9.93;9.57;;;24.50;95.00;;;;;;4959596;28;20562;-79
2023/07/14 10:55:38;;;;;;;10.90;10.50;;;24.50;95.90;;;;;;4957556;28;20474;-79
2023/07/14 10:58:14;;;;;;;10.80;10.50;;;24.50;96.20;;;;;;4955631;28;20486;-78
2023/07/14 11:00:47;;;;;;;10.30;9.90;;;24.60;97.00;;;;;;4958776;28;20455;-80
2023/07/14 11:03:26;;;;;;;10.57;10.30;;;24.60;96.00;;;;;;4959139;28;20985;-81
2023/07/14 11:05:57;;;;;;;10.40;10.00;;;24.50;95.80;;;;;;4956708;28;21012;-79
2023/07/14 11:08:28;;;;;;;11.13;10.57;;;24.50;96.30;;;;;;4956960;28;20452;-80
2023/07/14 11:11:04;;;;;;;10.23;9.93;;;24.60;97.90;;;;;;4955049;28;20468;-79
2023/07/14 11:13:43;;;;;;;10.37;10.07;;;24.60;95.60;;;;;;4959659;28;20491;-78
2023/07/14 11:16:19;;;;;;;9.80;9.60;;;24.60;94.70;;;;;;4958288;28;20477;-79
2023/07/14 11:18:59;;;;;;;10.43;10.03;;;24.60;95.60;;;;;;4958881;28;20456;-79
2023/07/14 11:27:46;;;;;;;10.60;10.30;;;24.80;96.90;;;;;;4914500;29;20854;-80
2023/07/14 11:30:21;;;;;;;10.50;10.20;;;24.80;99.60;;;;;;4917964;29;20457;-80
2023/07/14 11:33:54;;;;;;;10.50;10.10;;;24.90;97.70;;;;;;4916819;29;20559;-80
2023/07/14 11:37:02;;;;;;;10.23;9.83;;;24.90;98.10;;;;;;4914136;29;20499;-78
2023/07/14 12:23:28;;;;;;;10.20;9.90;;;25.20;94.80;;;;;;4981921;28;20441;-80
2023/07/14 12:26:37;;;;;;;9.90;9.60;;;25.20;94.50;;;;;;4969921;28;20541;-85
2023/07/14 12:52:39;;;;;;;10.90;10.40;;;25.50;97.50;;;;;;4944092;28;21000;-84
2023/07/14 13:22:52;;;;;;;10.20;9.60;;;25.60;96.00;;;;;;4943996;28;21234;-83
2023/07/14 13:26:01;;;;;;;10.23;9.77;;;25.60;92.50;;;;;;4930876;28;20574;-85
2023/07/14 13:33:29;;;;;;;9.57;9.30;;;25.60;95.30;;;;;;4847507;29;20997;-84
2023/07/14 14:02:31;;;;;;;8.60;8.40;;;26.30;93.70;;;;;;4939541;28;20540;-85
2023/07/14 14:05:33;;;;;;;8.90;8.53;;;26.30;93.40;;;;;;4934381;28;20477;-85
2023/07/14 14:12:35;;;;;;;9.37;9.07;;;26.30;94.10;;;;;;4939934;28;20887;-86
2023/07/14 14:20:11;;;;;;;8.83;8.53;;;26.20;93.30;;;;;;4935689;28;20845;-85
2023/07/14 14:30:01;;;;;;;7.57;7.30;;;26.30;93.20;;;;;;4857781;28;20482;-85
2023/07/14 14:32:32;;;;;;;8.67;8.37;;;26.30;93.90;;;;;;4937256;28;20468;-85
2023/07/14 14:47:48;;;;;;;8.13;7.83;;;26.40;92.80;;;;;;4947243;23;20555;-87
2023/07/14 14:50:19;;;;;;;8.43;8.23;;;26.30;93.20;;;;;;4942260;28;20460;-84
2023/07/14 14:52:49;;;;;;;8.50;8.20;;;26.30;94.10;;;;;;4940153;28;20444;-85
2023/07/14 14:55:20;;;;;;;7.97;7.67;;;26.30;93.20;;;;;;4942728;28;20492;-86
2023/07/14 14:57:52;;;;;;;8.30;8.03;;;26.40;93.70;;;;;;4941683;28;20457;-86
2023/07/14 15:00:25;;;;;;;8.30;8.10;;;26.40;93.60;;;;;;4938960;28;20466;-87
2023/07/14 15:02:53;;;;;;;8.03;7.53;;;26.40;93.90;;;;;;4940297;28;20465;-86
2023/07/14 15:05:23;;;;;;;8.10;7.70;;;26.40;92.60;;;;;;4940726;28;20472;-88
2023/07/14 15:07:53;;;;;;;8.40;7.90;;;26.30;99.90;;;;;;4936154;28;20471;-85
2023/07/14 15:10:26;;;;;;;8.10;7.90;;;26.40;91.80;;;;;;4945578;28;20491;-86
2023/07/14 15:12:54;;;;;;;8.03;7.83;;;26.40;93.10;;;;;;4941078;28;20568;-85
2023/07/14 15:15:28;;;;;;;8.20;7.93;;;26.40;93.60;;;;;;4941509;28;20532;-86
2023/07/14 15:17:57;;;;;;;8.30;8.00;;;26.30;92.90;;;;;;4929684;29;21014;-85
2023/07/14 15:20:26;;;;;;;7.77;7.47;;;26.40;92.50;;;;;;4943027;28;20467;-86
2023/07/14 15:22:56;;;;;;;7.60;7.20;;;26.40;92.00;;;;;;4926249;29;20471;-85
2023/07/14 15:25:25;;;;;;;8.00;7.67;;;26.40;92.30;;;;;;4937440;28;20484;-86
2023/07/14 15:27:53;;;;;;;7.87;7.50;;;26.40;92.70;;;;;;4941307;28;20472;-87
2023/07/14 15:30:29;;;;;;;8.60;8.20;;;26.40;93.80;;;;;;4944064;28;20464;-86
2023/07/14 15:32:59;;;;;;;7.40;7.20;;;26.40;93.40;;;;;;4943454;28;20447;-87
2023/07/14 15:35:29;;;;;;;7.77;7.47;;;26.40;92.80;;;;;;4940863;28;20784;-86